Observations for FIRENZE PERETOLA, Italy (LIRQ)

LIRQ 242150Z 04011KT 010V080 CAVOK 19/07 Q1024  
LIRQ 242120Z 04008KT 010V080 CAVOK 19/08 Q1023  
LIRQ 242050Z 04009KT 330V090 CAVOK 20/09 Q1023  
LIRQ 242020Z 03009G19KT 290V090 CAVOK 20/08 Q1022   
LIRQ 241950Z 36010G20KT 300V070 CAVOK 20/09 Q1022   
LIRQ 241920Z 03015KT 360V060 CAVOK 21/09 Q1021  
LIRQ 241850Z 03009KT 350V070 CAVOK 21/10 Q1021  
LIRQ 241820Z 05010G22KT 360V090 CAVOK 21/10 Q1020   
LIRQ 241750Z VRB09KT CAVOK 21/10 Q1020  
LIRQ 241720Z VRB07KT CAVOK 22/09 Q1019  
LIRQ 241650Z 02011G21KT 330V060 CAVOK 22/09 Q1019   
LIRQ 241620Z 05012G23KT 350V090 CAVOK 23/08 Q1018   
LIRQ 241550Z 04012G22KT 340V080 CAVOK 23/08 Q1018   
LIRQ 241520Z 04016G27KT 350V070 CAVOK 24/08 Q1017   
LIRQ 241450Z 05019G29KT 020V090 9999 FEW040 25/08 Q1017 WS RWY05
LIRQ 241420Z 06023G35KT 9999 FEW040 25/10 Q1016 WS RWY05
LIRQ 241350Z 07020G30KT 030V090 9999 FEW040 26/13 Q1016 
LIRQ 241320Z 06018KT 020V090 9999 SCT040 25/14 Q1016
LIRQ 241250Z 03014KT 9999 SCT040 28/16 Q1015
LIRQ 241220Z 04011KT 360V060 9999 SCT040 30/15 Q1015
LIRQ 241150Z 35011KT 310V030 9999 SCT040 31/14 Q1014
LIRQ 241120Z VRB03KT 9999 SCT040 29/17 Q1015
LIRQ 241050Z 01003KT 290V100 9999 SCT050 29/18 Q1015
LIRQ 241020Z 21003KT 150V270 9999 SCT050 28/18 Q1015
LIRQ 240950Z VRB02KT 9999 SCT050 27/18 Q1015
LIRQ 240920Z VRB02KT 9999 BKN050 26/19 Q1015
LIRQ 240850Z VRB03KT 9999 SCT050 27/19 Q1015
LIRQ 240820Z VRB02KT 9999 BKN050 25/19 Q1014
LIRQ 240750Z VRB03KT 9999 BKN040 25/19 Q1014
LIRQ 240720Z VRB02KT 9999 SCT040 24/18 Q1014
LIRQ 240650Z VRB02KT 9999 BKN040 24/19 Q1013
LIRQ 240620Z 08002KT 9999 FEW035 SCT040 23/19 Q1013 
LIRQ 240550Z 14003KT 080V150 9999 BKN040 23/18 Q1013
LIRQ 240520Z 12005KT 9999 BKN040 23/18 Q1012
LIRQ 240450Z 07003KT 9999 BKN040 23/19 Q1013
LIRQ 240420Z 08003KT 050V160 9999 BKN040 23/18 Q1013
LIRQ 240350Z 08903KT 9999 BKN045 23/18 Q1013
LIRQ 240320Z 09104KT 9999 SCT040 22/19 Q1013
LIRQ 240120Z VRB02KT 9999 SCT040 23/18 Q1013
LIRQ 232350Z 16004KT 120V200 9999 FEW030 SCT040 23/18 Q1014 
LIRQ 232320Z 16006KT 120V190 9999 FEW035 SCT055 22/18 Q1014 
LIRQ 232250Z 15007KT 9999 SCT035 SCT050 23/18 Q1015 
LIRQ 232220Z 14005KT 9999 SCT035 SCT045 23/18 Q1015 
LIRQ 232150Z 15006KT 9999 FEW040 23/18 Q1016
LIRQ 232120Z 15005KT 090V200 9999 FEW020 23/18 Q1016